sensor_id;sensor_type;location;lat;lon;timestamp;P1;durP1;ratioP1;P2;durP2;ratioP2
10523;SDS011;5310;48.638;9.060;2023-02-15T00:01:23;1.20;;;1.20;;
10523;SDS011;5310;48.638;9.060;2023-02-15T00:03:49;1.17;;;1.17;;
10523;SDS011;5310;48.638;9.060;2023-02-15T00:06:15;1.10;;;1.10;;
10523;SDS011;5310;48.638;9.060;2023-02-15T00:08:41;1.20;;;1.20;;
10523;SDS011;5310;48.638;9.060;2023-02-15T00:11:08;1.20;;;1.20;;
10523;SDS011;5310;48.638;9.060;2023-02-15T00:13:34;1.20;;;1.20;;
10523;SDS011;5310;48.638;9.060;2023-02-15T00:16:08;1.20;;;1.20;;
10523;SDS011;5310;48.638;9.060;2023-02-15T00:18:37;1.10;;;1.10;;
10523;SDS011;5310;48.638;9.060;2023-02-15T00:21:04;1.20;;;1.20;;
10523;SDS011;5310;48.638;9.060;2023-02-15T00:23:31;1.20;;;1.20;;
10523;SDS011;5310;48.638;9.060;2023-02-15T00:26:06;1.10;;;1.10;;
10523;SDS011;5310;48.638;9.060;2023-02-15T00:28:33;1.20;;;1.20;;
10523;SDS011;5310;48.638;9.060;2023-02-15T00:31:06;1.10;;;1.10;;
10523;SDS011;5310;48.638;9.060;2023-02-15T00:33:33;1.20;;;1.20;;
10523;SDS011;5310;48.638;9.060;2023-02-15T00:35:59;1.20;;;1.20;;
10523;SDS011;5310;48.638;9.060;2023-02-15T00:38:29;1.10;;;1.10;;
10523;SDS011;5310;48.638;9.060;2023-02-15T00:40:55;1.10;;;1.10;;
10523;SDS011;5310;48.638;9.060;2023-02-15T00:43:22;1.10;;;1.10;;
10523;SDS011;5310;48.638;9.060;2023-02-15T00:45:48;1.20;;;1.20;;
10523;SDS011;5310;48.638;9.060;2023-02-15T00:48:14;1.20;;;1.20;;
10523;SDS011;5310;48.638;9.060;2023-02-15T00:50:40;1.13;;;1.13;;
10523;SDS011;5310;48.638;9.060;2023-02-15T00:53:07;1.10;;;1.10;;
10523;SDS011;5310;48.638;9.060;2023-02-15T00:55:32;1.20;;;1.20;;
10523;SDS011;5310;48.638;9.060;2023-02-15T00:57:58;1.20;;;1.20;;
10523;SDS011;5310;48.638;9.060;2023-02-15T01:00:24;1.20;;;1.20;;
10523;SDS011;5310;48.638;9.060;2023-02-15T01:02:50;1.20;;;1.20;;
10523;SDS011;5310;48.638;9.060;2023-02-15T01:05:15;1.20;;;1.20;;
10523;SDS011;5310;48.638;9.060;2023-02-15T01:07:41;1.20;;;1.20;;
10523;SDS011;5310;48.638;9.060;2023-02-15T01:10:07;1.20;;;1.20;;
10523;SDS011;5310;48.638;9.060;2023-02-15T01:12:33;1.10;;;1.10;;
10523;SDS011;5310;48.638;9.060;2023-02-15T01:14:59;1.17;;;1.17;;
10523;SDS011;5310;48.638;9.060;2023-02-15T01:17:25;1.20;;;1.20;;
10523;SDS011;5310;48.638;9.060;2023-02-15T01:19:51;1.20;;;1.20;;
10523;SDS011;5310;48.638;9.060;2023-02-15T01:22:17;1.20;;;1.20;;
10523;SDS011;5310;48.638;9.060;2023-02-15T01:24:43;1.20;;;1.20;;
10523;SDS011;5310;48.638;9.060;2023-02-15T01:27:09;1.20;;;1.20;;
10523;SDS011;5310;48.638;9.060;2023-02-15T01:29:35;1.20;;;1.20;;
10523;SDS011;5310;48.638;9.060;2023-02-15T01:32:01;1.13;;;1.13;;
10523;SDS011;5310;48.638;9.060;2023-02-15T01:34:28;1.10;;;1.10;;
10523;SDS011;5310;48.638;9.060;2023-02-15T01:36:54;1.30;;;1.30;;
10523;SDS011;5310;48.638;9.060;2023-02-15T01:39:20;1.10;;;1.10;;
10523;SDS011;5310;48.638;9.060;2023-02-15T01:41:46;1.20;;;1.20;;
10523;SDS011;5310;48.638;9.060;2023-02-15T01:46:56;1.20;;;1.20;;
10523;SDS011;5310;48.638;9.060;2023-02-15T01:49:22;1.20;;;1.20;;
10523;SDS011;5310;48.638;9.060;2023-02-15T01:51:51;1.20;;;1.20;;
10523;SDS011;5310;48.638;9.060;2023-02-15T01:56:43;1.20;;;1.20;;
10523;SDS011;5310;48.638;9.060;2023-02-15T01:59:11;1.20;;;1.20;;
10523;SDS011;5310;48.638;9.060;2023-02-15T02:01:41;1.20;;;1.20;;
10523;SDS011;5310;48.638;9.060;2023-02-15T02:04:15;1.27;;;1.27;;
10523;SDS011;5310;48.638;9.060;2023-02-15T02:06:43;1.20;;;1.20;;
10523;SDS011;5310;48.638;9.060;2023-02-15T02:09:11;1.20;;;1.20;;
10523;SDS011;5310;48.638;9.060;2023-02-15T02:11:37;1.20;;;1.20;;
10523;SDS011;5310;48.638;9.060;2023-02-15T02:14:05;1.20;;;1.20;;
10523;SDS011;5310;48.638;9.060;2023-02-15T02:16:40;1.20;;;1.20;;
10523;SDS011;5310;48.638;9.060;2023-02-15T02:19:19;1.20;;;1.20;;
10523;SDS011;5310;48.638;9.060;2023-02-15T02:30:45;1.20;;;1.20;;
10523;SDS011;5310;48.638;9.060;2023-02-15T02:33:37;1.20;;;1.20;;
10523;SDS011;5310;48.638;9.060;2023-02-15T02:36:26;1.20;;;1.20;;
10523;SDS011;5310;48.638;9.060;2023-02-15T02:39:06;1.20;;;1.20;;
10523;SDS011;5310;48.638;9.060;2023-02-15T02:42:02;1.20;;;1.20;;
10523;SDS011;5310;48.638;9.060;2023-02-15T02:44:57;1.20;;;1.20;;
10523;SDS011;5310;48.638;9.060;2023-02-15T02:47:32;1.20;;;1.20;;
10523;SDS011;5310;48.638;9.060;2023-02-15T02:50:03;1.20;;;1.20;;
10523;SDS011;5310;48.638;9.060;2023-02-15T02:52:42;1.10;;;1.10;;
10523;SDS011;5310;48.638;9.060;2023-02-15T02:58:05;1.20;;;1.20;;
10523;SDS011;5310;48.638;9.060;2023-02-15T03:00:44;1.20;;;1.20;;
10523;SDS011;5310;48.638;9.060;2023-02-15T03:03:14;1.20;;;1.20;;
10523;SDS011;5310;48.638;9.060;2023-02-15T03:05:43;1.20;;;1.20;;
10523;SDS011;5310;48.638;9.060;2023-02-15T03:08:09;1.20;;;1.20;;
10523;SDS011;5310;48.638;9.060;2023-02-15T03:10:37;1.20;;;1.20;;
10523;SDS011;5310;48.638;9.060;2023-02-15T03:13:04;1.20;;;1.20;;
10523;SDS011;5310;48.638;9.060;2023-02-15T03:15:34;1.30;;;1.30;;
10523;SDS011;5310;48.638;9.060;2023-02-15T03:18:36;1.23;;;1.23;;
10523;SDS011;5310;48.638;9.060;2023-02-15T03:21:03;1.20;;;1.20;;
10523;SDS011;5310;48.638;9.060;2023-02-15T03:23:30;1.20;;;1.20;;
10523;SDS011;5310;48.638;9.060;2023-02-15T03:25:59;1.10;;;1.10;;
10523;SDS011;5310;48.638;9.060;2023-02-15T03:28:32;1.20;;;1.20;;
10523;SDS011;5310;48.638;9.060;2023-02-15T03:31:00;1.20;;;1.20;;
10523;SDS011;5310;48.638;9.060;2023-02-15T03:33:27;1.20;;;1.20;;
10523;SDS011;5310;48.638;9.060;2023-02-15T03:35:55;1.20;;;1.20;;
10523;SDS011;5310;48.638;9.060;2023-02-15T03:38:28;1.20;;;1.20;;
10523;SDS011;5310;48.638;9.060;2023-02-15T03:41:09;1.20;;;1.20;;
10523;SDS011;5310;48.638;9.060;2023-02-15T03:49:08;1.20;;;1.20;;
10523;SDS011;5310;48.638;9.060;2023-02-15T03:51:40;1.20;;;1.20;;
10523;SDS011;5310;48.638;9.060;2023-02-15T03:54:14;1.20;;;1.20;;
10523;SDS011;5310;48.638;9.060;2023-02-15T03:57:04;1.20;;;1.20;;
10523;SDS011;5310;48.638;9.060;2023-02-15T03:59:48;1.20;;;1.20;;
10523;SDS011;5310;48.638;9.060;2023-02-15T04:02:38;1.20;;;1.20;;
10523;SDS011;5310;48.638;9.060;2023-02-15T04:05:15;1.20;;;1.20;;
10523;SDS011;5310;48.638;9.060;2023-02-15T04:07:41;1.20;;;1.20;;
10523;SDS011;5310;48.638;9.060;2023-02-15T04:10:07;1.20;;;1.20;;
10523;SDS011;5310;48.638;9.060;2023-02-15T04:12:51;1.20;;;1.20;;
10523;SDS011;5310;48.638;9.060;2023-02-15T04:15:17;1.20;;;1.20;;
10523;SDS011;5310;48.638;9.060;2023-02-15T04:18:04;1.20;;;1.20;;
10523;SDS011;5310;48.638;9.060;2023-02-15T04:20:30;1.20;;;1.20;;
10523;SDS011;5310;48.638;9.060;2023-02-15T04:23:15;1.20;;;1.20;;
10523;SDS011;5310;48.638;9.060;2023-02-15T04:26:02;1.10;;;1.10;;
10523;SDS011;5310;48.638;9.060;2023-02-15T04:28:28;1.20;;;1.20;;
10523;SDS011;5310;48.638;9.060;2023-02-15T04:30:54;1.20;;;1.20;;
10523;SDS011;5310;48.638;9.060;2023-02-15T04:33:20;1.20;;;1.20;;
10523;SDS011;5310;48.638;9.060;2023-02-15T04:35:46;1.27;;;1.27;;
10523;SDS011;5310;48.638;9.060;2023-02-15T04:38:12;1.30;;;1.30;;
10523;SDS011;5310;48.638;9.060;2023-02-15T04:40:38;1.20;;;1.20;;
10523;SDS011;5310;48.638;9.060;2023-02-15T04:43:03;1.20;;;1.20;;
10523;SDS011;5310;48.638;9.060;2023-02-15T04:45:29;1.20;;;1.20;;
10523;SDS011;5310;48.638;9.060;2023-02-15T04:47:55;1.23;;;1.23;;
10523;SDS011;5310;48.638;9.060;2023-02-15T04:50:21;1.20;;;1.20;;
10523;SDS011;5310;48.638;9.060;2023-02-15T04:52:46;1.20;;;1.20;;
10523;SDS011;5310;48.638;9.060;2023-02-15T04:55:12;1.20;;;1.20;;
10523;SDS011;5310;48.638;9.060;2023-02-15T04:57:39;1.20;;;1.20;;
10523;SDS011;5310;48.638;9.060;2023-02-15T05:00:04;1.20;;;1.20;;
10523;SDS011;5310;48.638;9.060;2023-02-15T05:02:31;1.30;;;1.30;;
10523;SDS011;5310;48.638;9.060;2023-02-15T05:04:57;1.20;;;1.20;;
10523;SDS011;5310;48.638;9.060;2023-02-15T05:07:22;1.20;;;1.20;;
10523;SDS011;5310;48.638;9.060;2023-02-15T05:09:48;1.20;;;1.20;;
10523;SDS011;5310;48.638;9.060;2023-02-15T05:12:14;1.30;;;1.30;;
10523;SDS011;5310;48.638;9.060;2023-02-15T05:14:40;1.20;;;1.20;;
10523;SDS011;5310;48.638;9.060;2023-02-15T05:17:06;1.20;;;1.20;;
10523;SDS011;5310;48.638;9.060;2023-02-15T05:19:32;1.30;;;1.30;;
10523;SDS011;5310;48.638;9.060;2023-02-15T05:21:58;1.20;;;1.20;;
10523;SDS011;5310;48.638;9.060;2023-02-15T05:24:24;1.20;;;1.20;;
10523;SDS011;5310;48.638;9.060;2023-02-15T05:27:12;1.30;;;1.30;;
10523;SDS011;5310;48.638;9.060;2023-02-15T05:29:56;1.20;;;1.20;;
10523;SDS011;5310;48.638;9.060;2023-02-15T05:32:22;1.30;;;1.30;;
10523;SDS011;5310;48.638;9.060;2023-02-15T05:34:48;1.20;;;1.20;;
10523;SDS011;5310;48.638;9.060;2023-02-15T05:37:14;1.20;;;1.20;;
10523;SDS011;5310;48.638;9.060;2023-02-15T05:39:40;1.20;;;1.20;;
10523;SDS011;5310;48.638;9.060;2023-02-15T05:42:05;1.20;;;1.20;;
10523;SDS011;5310;48.638;9.060;2023-02-15T05:44:31;1.10;;;1.10;;
10523;SDS011;5310;48.638;9.060;2023-02-15T05:46:57;1.20;;;1.20;;
10523;SDS011;5310;48.638;9.060;2023-02-15T05:49:23;1.20;;;1.20;;
10523;SDS011;5310;48.638;9.060;2023-02-15T05:51:49;1.27;;;1.27;;
10523;SDS011;5310;48.638;9.060;2023-02-15T05:54:15;1.20;;;1.20;;
10523;SDS011;5310;48.638;9.060;2023-02-15T05:56:41;1.20;;;1.20;;
10523;SDS011;5310;48.638;9.060;2023-02-15T05:59:07;1.20;;;1.20;;
10523;SDS011;5310;48.638;9.060;2023-02-15T06:01:33;1.20;;;1.20;;
10523;SDS011;5310;48.638;9.060;2023-02-15T06:03:58;1.20;;;1.20;;
10523;SDS011;5310;48.638;9.060;2023-02-15T06:06:24;1.20;;;1.20;;
10523;SDS011;5310;48.638;9.060;2023-02-15T06:08:50;1.20;;;1.20;;
10523;SDS011;5310;48.638;9.060;2023-02-15T06:11:16;1.20;;;1.20;;
10523;SDS011;5310;48.638;9.060;2023-02-15T06:13:42;1.27;;;1.27;;
10523;SDS011;5310;48.638;9.060;2023-02-15T06:16:08;1.20;;;1.20;;
10523;SDS011;5310;48.638;9.060;2023-02-15T06:18:34;1.20;;;1.20;;
10523;SDS011;5310;48.638;9.060;2023-02-15T06:21:00;1.30;;;1.30;;
10523;SDS011;5310;48.638;9.060;2023-02-15T06:23:26;1.20;;;1.20;;
10523;SDS011;5310;48.638;9.060;2023-02-15T06:25:51;1.20;;;1.20;;
10523;SDS011;5310;48.638;9.060;2023-02-15T06:28:17;1.30;;;1.30;;
10523;SDS011;5310;48.638;9.060;2023-02-15T06:30:43;1.20;;;1.20;;
10523;SDS011;5310;48.638;9.060;2023-02-15T06:33:09;1.20;;;1.20;;
10523;SDS011;5310;48.638;9.060;2023-02-15T06:35:34;1.10;;;1.10;;
10523;SDS011;5310;48.638;9.060;2023-02-15T06:38:00;1.30;;;1.30;;
10523;SDS011;5310;48.638;9.060;2023-02-15T06:40:26;1.20;;;1.20;;
10523;SDS011;5310;48.638;9.060;2023-02-15T06:42:52;1.20;;;1.20;;
10523;SDS011;5310;48.638;9.060;2023-02-15T06:45:18;1.20;;;1.20;;
10523;SDS011;5310;48.638;9.060;2023-02-15T06:47:44;1.20;;;1.20;;
10523;SDS011;5310;48.638;9.060;2023-02-15T06:50:10;1.30;;;1.30;;
10523;SDS011;5310;48.638;9.060;2023-02-15T06:52:35;1.20;;;1.20;;
10523;SDS011;5310;48.638;9.060;2023-02-15T06:55:01;1.20;;;1.20;;
10523;SDS011;5310;48.638;9.060;2023-02-15T06:57:27;1.27;;;1.27;;
10523;SDS011;5310;48.638;9.060;2023-02-15T06:59:53;1.20;;;1.20;;
10523;SDS011;5310;48.638;9.060;2023-02-15T07:02:19;1.20;;;1.20;;
10523;SDS011;5310;48.638;9.060;2023-02-15T07:04:45;1.20;;;1.20;;
10523;SDS011;5310;48.638;9.060;2023-02-15T07:07:11;1.30;;;1.30;;
10523;SDS011;5310;48.638;9.060;2023-02-15T07:09:37;1.20;;;1.20;;
10523;SDS011;5310;48.638;9.060;2023-02-15T07:12:04;1.20;;;1.20;;
10523;SDS011;5310;48.638;9.060;2023-02-15T07:14:48;1.20;;;1.20;;
10523;SDS011;5310;48.638;9.060;2023-02-15T07:17:14;1.20;;;1.20;;
10523;SDS011;5310;48.638;9.060;2023-02-15T07:19:40;1.20;;;1.20;;
10523;SDS011;5310;48.638;9.060;2023-02-15T07:22:06;1.10;;;1.10;;
10523;SDS011;5310;48.638;9.060;2023-02-15T07:24:32;1.30;;;1.30;;
10523;SDS011;5310;48.638;9.060;2023-02-15T07:26:58;1.20;;;1.20;;
10523;SDS011;5310;48.638;9.060;2023-02-15T07:29:23;1.20;;;1.20;;
10523;SDS011;5310;48.638;9.060;2023-02-15T07:31:49;1.20;;;1.20;;
10523;SDS011;5310;48.638;9.060;2023-02-15T07:34:15;1.20;;;1.20;;
10523;SDS011;5310;48.638;9.060;2023-02-15T07:36:41;1.20;;;1.20;;
10523;SDS011;5310;48.638;9.060;2023-02-15T07:39:06;1.20;;;1.20;;
10523;SDS011;5310;48.638;9.060;2023-02-15T07:41:32;1.20;;;1.20;;
10523;SDS011;5310;48.638;9.060;2023-02-15T07:43:58;1.20;;;1.20;;
10523;SDS011;5310;48.638;9.060;2023-02-15T07:46:24;1.20;;;1.20;;
10523;SDS011;5310;48.638;9.060;2023-02-15T07:48:50;1.20;;;1.20;;
10523;SDS011;5310;48.638;9.060;2023-02-15T07:51:16;1.20;;;1.20;;
10523;SDS011;5310;48.638;9.060;2023-02-15T07:53:41;1.23;;;1.23;;
10523;SDS011;5310;48.638;9.060;2023-02-15T07:56:11;1.20;;;1.20;;
10523;SDS011;5310;48.638;9.060;2023-02-15T07:58:39;1.10;;;1.10;;
10523;SDS011;5310;48.638;9.060;2023-02-15T08:01:27;1.20;;;1.20;;
10523;SDS011;5310;48.638;9.060;2023-02-15T08:03:56;1.20;;;1.20;;
10523;SDS011;5310;48.638;9.060;2023-02-15T08:06:23;1.10;;;1.10;;
10523;SDS011;5310;48.638;9.060;2023-02-15T08:08:49;1.20;;;1.20;;
10523;SDS011;5310;48.638;9.060;2023-02-15T08:11:25;1.20;;;1.20;;
10523;SDS011;5310;48.638;9.060;2023-02-15T08:21:47;1.20;;;1.20;;
10523;SDS011;5310;48.638;9.060;2023-02-15T08:24:15;1.20;;;1.20;;
10523;SDS011;5310;48.638;9.060;2023-02-15T08:26:42;1.10;;;1.10;;
10523;SDS011;5310;48.638;9.060;2023-02-15T08:29:10;1.17;;;1.17;;
10523;SDS011;5310;48.638;9.060;2023-02-15T08:31:36;1.10;;;1.10;;
10523;SDS011;5310;48.638;9.060;2023-02-15T08:34:02;1.20;;;1.20;;
10523;SDS011;5310;48.638;9.060;2023-02-15T08:36:29;1.10;;;1.10;;
10523;SDS011;5310;48.638;9.060;2023-02-15T08:39:00;1.10;;;1.10;;
10523;SDS011;5310;48.638;9.060;2023-02-15T08:41:27;1.20;;;1.20;;
10523;SDS011;5310;48.638;9.060;2023-02-15T08:43:55;1.10;;;1.10;;
10523;SDS011;5310;48.638;9.060;2023-02-15T08:46:22;1.10;;;1.10;;
10523;SDS011;5310;48.638;9.060;2023-02-15T08:48:49;1.20;;;1.20;;
10523;SDS011;5310;48.638;9.060;2023-02-15T08:51:17;1.20;;;1.20;;
10523;SDS011;5310;48.638;9.060;2023-02-15T08:53:45;1.20;;;1.20;;
10523;SDS011;5310;48.638;9.060;2023-02-15T08:56:14;1.20;;;1.20;;
10523;SDS011;5310;48.638;9.060;2023-02-15T08:58:40;1.20;;;1.20;;
10523;SDS011;5310;48.638;9.060;2023-02-15T09:01:16;1.10;;;1.10;;
10523;SDS011;5310;48.638;9.060;2023-02-15T09:03:45;1.10;;;1.10;;
10523;SDS011;5310;48.638;9.060;2023-02-15T09:06:12;1.10;;;1.10;;
10523;SDS011;5310;48.638;9.060;2023-02-15T09:08:38;1.10;;;1.10;;
10523;SDS011;5310;48.638;9.060;2023-02-15T09:11:09;1.13;;;1.13;;
10523;SDS011;5310;48.638;9.060;2023-02-15T09:13:37;1.10;;;1.10;;
10523;SDS011;5310;48.638;9.060;2023-02-15T09:16:05;1.10;;;1.10;;
10523;SDS011;5310;48.638;9.060;2023-02-15T09:18:33;1.10;;;1.10;;
10523;SDS011;5310;48.638;9.060;2023-02-15T09:21:10;1.10;;;1.10;;
10523;SDS011;5310;48.638;9.060;2023-02-15T09:23:40;1.10;;;1.10;;
10523;SDS011;5310;48.638;9.060;2023-02-15T09:26:07;1.10;;;1.10;;
10523;SDS011;5310;48.638;9.060;2023-02-15T09:28:33;1.10;;;1.10;;
10523;SDS011;5310;48.638;9.060;2023-02-15T09:31:09;1.10;;;1.10;;
10523;SDS011;5310;48.638;9.060;2023-02-15T09:33:37;1.00;;;1.00;;
10523;SDS011;5310;48.638;9.060;2023-02-15T09:36:04;1.10;;;1.10;;
10523;SDS011;5310;48.638;9.060;2023-02-15T09:38:30;1.00;;;1.00;;
10523;SDS011;5310;48.638;9.060;2023-02-15T09:41:13;1.00;;;1.00;;
10523;SDS011;5310;48.638;9.060;2023-02-15T09:46:25;1.00;;;1.00;;
10523;SDS011;5310;48.638;9.060;2023-02-15T09:48:55;1.00;;;1.00;;
10523;SDS011;5310;48.638;9.060;2023-02-15T09:51:32;1.00;;;1.00;;
10523;SDS011;5310;48.638;9.060;2023-02-15T09:56:42;1.00;;;1.00;;
10523;SDS011;5310;48.638;9.060;2023-02-15T10:02:24;1.00;;;1.00;;
10523;SDS011;5310;48.638;9.060;2023-02-15T10:07:30;1.00;;;1.00;;
10523;SDS011;5310;48.638;9.060;2023-02-15T10:12:43;1.00;;;1.00;;
10523;SDS011;5310;48.638;9.060;2023-02-15T10:28:20;1.00;;;1.00;;
10523;SDS011;5310;48.638;9.060;2023-02-15T10:30:49;0.90;;;0.90;;
10523;SDS011;5310;48.638;9.060;2023-02-15T10:33:23;1.00;;;1.00;;
10523;SDS011;5310;48.638;9.060;2023-02-15T10:41:35;0.90;;;0.90;;
10523;SDS011;5310;48.638;9.060;2023-02-15T10:49:33;0.90;;;0.90;;
10523;SDS011;5310;48.638;9.060;2023-02-15T10:52:22;0.90;;;0.90;;
10523;SDS011;5310;48.638;9.060;2023-02-15T10:55:07;0.80;;;0.80;;
10523;SDS011;5310;48.638;9.060;2023-02-15T10:57:50;0.90;;;0.90;;
10523;SDS011;5310;48.638;9.060;2023-02-15T11:08:06;0.80;;;0.80;;
10523;SDS011;5310;48.638;9.060;2023-02-15T11:10:35;0.80;;;0.80;;
10523;SDS011;5310;48.638;9.060;2023-02-15T11:13:14;0.83;;;0.83;;
10523;SDS011;5310;48.638;9.060;2023-02-15T11:15:46;0.80;;;0.80;;
10523;SDS011;5310;48.638;9.060;2023-02-15T11:18:14;0.77;;;0.77;;
10523;SDS011;5310;48.638;9.060;2023-02-15T11:21:04;0.80;;;0.80;;
10523;SDS011;5310;48.638;9.060;2023-02-15T11:23:31;0.80;;;0.80;;
10523;SDS011;5310;48.638;9.060;2023-02-15T11:26:02;0.60;;;0.60;;
10523;SDS011;5310;48.638;9.060;2023-02-15T11:28:31;0.67;;;0.67;;
10523;SDS011;5310;48.638;9.060;2023-02-15T11:31:00;0.70;;;0.70;;
10523;SDS011;5310;48.638;9.060;2023-02-15T11:33:37;0.70;;;0.70;;
10523;SDS011;5310;48.638;9.060;2023-02-15T11:36:18;0.70;;;0.70;;
10523;SDS011;5310;48.638;9.060;2023-02-15T11:38:47;0.70;;;0.70;;
10523;SDS011;5310;48.638;9.060;2023-02-15T11:41:16;0.70;;;0.70;;
10523;SDS011;5310;48.638;9.060;2023-02-15T11:43:56;0.60;;;0.60;;
10523;SDS011;5310;48.638;9.060;2023-02-15T11:46:27;0.63;;;0.63;;
10523;SDS011;5310;48.638;9.060;2023-02-15T11:48:53;0.70;;;0.70;;
10523;SDS011;5310;48.638;9.060;2023-02-15T11:51:20;0.60;;;0.60;;
10523;SDS011;5310;48.638;9.060;2023-02-15T11:53:47;0.60;;;0.60;;
10523;SDS011;5310;48.638;9.060;2023-02-15T11:56:14;0.60;;;0.60;;
10523;SDS011;5310;48.638;9.060;2023-02-15T12:01:20;0.90;;;0.90;;
10523;SDS011;5310;48.638;9.060;2023-02-15T12:04:06;0.60;;;0.60;;
10523;SDS011;5310;48.638;9.060;2023-02-15T12:06:33;0.60;;;0.60;;
10523;SDS011;5310;48.638;9.060;2023-02-15T12:09:22;0.60;;;0.60;;
10523;SDS011;5310;48.638;9.060;2023-02-15T12:11:50;0.70;;;0.70;;
10523;SDS011;5310;48.638;9.060;2023-02-15T12:14:16;0.60;;;0.60;;
10523;SDS011;5310;48.638;9.060;2023-02-15T12:16:43;0.60;;;0.60;;
10523;SDS011;5310;48.638;9.060;2023-02-15T12:19:20;0.70;;;0.70;;
10523;SDS011;5310;48.638;9.060;2023-02-15T12:21:59;0.53;;;0.53;;
10523;SDS011;5310;48.638;9.060;2023-02-15T12:29:26;0.60;;;0.60;;
10523;SDS011;5310;48.638;9.060;2023-02-15T12:31:55;0.60;;;0.60;;
10523;SDS011;5310;48.638;9.060;2023-02-15T12:34:32;0.60;;;0.60;;
10523;SDS011;5310;48.638;9.060;2023-02-15T12:37:08;0.50;;;0.50;;
10523;SDS011;5310;48.638;9.060;2023-02-15T12:39:35;0.50;;;0.50;;
10523;SDS011;5310;48.638;9.060;2023-02-15T12:42:03;0.57;;;0.57;;
10523;SDS011;5310;48.638;9.060;2023-02-15T12:44:38;0.50;;;0.50;;
10523;SDS011;5310;48.638;9.060;2023-02-15T12:47:18;0.50;;;0.50;;
10523;SDS011;5310;48.638;9.060;2023-02-15T12:49:44;0.53;;;0.53;;
10523;SDS011;5310;48.638;9.060;2023-02-15T12:52:29;0.50;;;0.50;;
10523;SDS011;5310;48.638;9.060;2023-02-15T12:54:54;0.40;;;0.40;;
10523;SDS011;5310;48.638;9.060;2023-02-15T13:00:06;0.70;;;0.70;;
10523;SDS011;5310;48.638;9.060;2023-02-15T13:02:45;0.50;;;0.50;;
10523;SDS011;5310;48.638;9.060;2023-02-15T13:08:20;0.50;;;0.50;;
10523;SDS011;5310;48.638;9.060;2023-02-15T13:11:00;0.60;;;0.60;;
10523;SDS011;5310;48.638;9.060;2023-02-15T13:13:30;0.60;;;0.60;;
10523;SDS011;5310;48.638;9.060;2023-02-15T13:16:09;0.60;;;0.60;;
10523;SDS011;5310;48.638;9.060;2023-02-15T13:18:37;0.60;;;0.60;;
10523;SDS011;5310;48.638;9.060;2023-02-15T13:21:14;0.50;;;0.50;;
10523;SDS011;5310;48.638;9.060;2023-02-15T13:24:05;0.50;;;0.50;;
10523;SDS011;5310;48.638;9.060;2023-02-15T13:26:47;0.50;;;0.50;;
10523;SDS011;5310;48.638;9.060;2023-02-15T13:29:33;0.50;;;0.50;;
10523;SDS011;5310;48.638;9.060;2023-02-15T13:32:10;0.60;;;0.60;;
10523;SDS011;5310;48.638;9.060;2023-02-15T13:34:56;0.50;;;0.50;;
10523;SDS011;5310;48.638;9.060;2023-02-15T13:40:01;0.50;;;0.50;;
10523;SDS011;5310;48.638;9.060;2023-02-15T13:42:32;0.50;;;0.50;;
10523;SDS011;5310;48.638;9.060;2023-02-15T13:45:19;0.50;;;0.50;;
10523;SDS011;5310;48.638;9.060;2023-02-15T13:47:53;0.50;;;0.50;;
10523;SDS011;5310;48.638;9.060;2023-02-15T14:01:19;0.60;;;0.60;;
10523;SDS011;5310;48.638;9.060;2023-02-15T14:09:20;0.50;;;0.50;;
10523;SDS011;5310;48.638;9.060;2023-02-15T14:12:15;0.60;;;0.60;;
10523;SDS011;5310;48.638;9.060;2023-02-15T14:15:04;0.50;;;0.50;;
10523;SDS011;5310;48.638;9.060;2023-02-15T14:23:30;0.40;;;0.40;;
10523;SDS011;5310;48.638;9.060;2023-02-15T14:28:58;0.60;;;0.60;;
10523;SDS011;5310;48.638;9.060;2023-02-15T14:31:50;0.50;;;0.50;;
10523;SDS011;5310;48.638;9.060;2023-02-15T14:37:11;0.50;;;0.50;;
10523;SDS011;5310;48.638;9.060;2023-02-15T14:39:47;0.60;;;0.60;;
10523;SDS011;5310;48.638;9.060;2023-02-15T14:47:38;0.60;;;0.60;;
10523;SDS011;5310;48.638;9.060;2023-02-15T14:50:35;0.60;;;0.60;;
10523;SDS011;5310;48.638;9.060;2023-02-15T14:55:43;0.60;;;0.60;;
10523;SDS011;5310;48.638;9.060;2023-02-15T14:58:12;0.50;;;0.50;;
10523;SDS011;5310;48.638;9.060;2023-02-15T15:00:41;0.57;;;0.57;;
10523;SDS011;5310;48.638;9.060;2023-02-15T15:03:11;0.60;;;0.60;;
10523;SDS011;5310;48.638;9.060;2023-02-15T15:05:49;0.60;;;0.60;;
10523;SDS011;5310;48.638;9.060;2023-02-15T15:08:28;0.60;;;0.60;;
10523;SDS011;5310;48.638;9.060;2023-02-15T15:10:57;0.60;;;0.60;;
10523;SDS011;5310;48.638;9.060;2023-02-15T15:13:55;0.50;;;0.50;;
10523;SDS011;5310;48.638;9.060;2023-02-15T15:16:27;0.53;;;0.53;;
10523;SDS011;5310;48.638;9.060;2023-02-15T15:19:03;0.60;;;0.60;;
10523;SDS011;5310;48.638;9.060;2023-02-15T15:27:36;0.60;;;0.60;;
10523;SDS011;5310;48.638;9.060;2023-02-15T15:30:02;0.53;;;0.53;;
10523;SDS011;5310;48.638;9.060;2023-02-15T15:38:16;0.70;;;0.70;;
10523;SDS011;5310;48.638;9.060;2023-02-15T15:41:07;0.50;;;0.50;;
10523;SDS011;5310;48.638;9.060;2023-02-15T15:44:40;0.60;;;0.60;;
10523;SDS011;5310;48.638;9.060;2023-02-15T15:49:23;0.60;;;0.60;;
10523;SDS011;5310;48.638;9.060;2023-02-15T15:51:48;0.50;;;0.50;;
10523;SDS011;5310;48.638;9.060;2023-02-15T15:54:15;0.60;;;0.60;;
10523;SDS011;5310;48.638;9.060;2023-02-15T15:56:43;0.60;;;0.60;;
10523;SDS011;5310;48.638;9.060;2023-02-15T15:59:17;0.60;;;0.60;;
10523;SDS011;5310;48.638;9.060;2023-02-15T16:01:48;0.60;;;0.60;;
10523;SDS011;5310;48.638;9.060;2023-02-15T16:04:25;0.50;;;0.50;;
10523;SDS011;5310;48.638;9.060;2023-02-15T16:06:54;0.60;;;0.60;;
10523;SDS011;5310;48.638;9.060;2023-02-15T16:09:24;0.60;;;0.60;;
10523;SDS011;5310;48.638;9.060;2023-02-15T16:11:52;0.60;;;0.60;;
10523;SDS011;5310;48.638;9.060;2023-02-15T16:14:28;0.60;;;0.60;;
10523;SDS011;5310;48.638;9.060;2023-02-15T16:17:01;0.60;;;0.60;;
10523;SDS011;5310;48.638;9.060;2023-02-15T16:19:29;0.70;;;0.70;;
10523;SDS011;5310;48.638;9.060;2023-02-15T16:21:59;0.60;;;0.60;;
10523;SDS011;5310;48.638;9.060;2023-02-15T16:29:44;0.60;;;0.60;;
10523;SDS011;5310;48.638;9.060;2023-02-15T16:32:18;0.70;;;0.70;;
10523;SDS011;5310;48.638;9.060;2023-02-15T16:34:55;0.70;;;0.70;;
10523;SDS011;5310;48.638;9.060;2023-02-15T16:37:34;0.70;;;0.70;;
10523;SDS011;5310;48.638;9.060;2023-02-15T16:40:00;0.70;;;0.70;;
10523;SDS011;5310;48.638;9.060;2023-02-15T16:42:26;0.70;;;0.70;;
10523;SDS011;5310;48.638;9.060;2023-02-15T16:44:55;0.70;;;0.70;;
10523;SDS011;5310;48.638;9.060;2023-02-15T16:47:33;0.70;;;0.70;;
10523;SDS011;5310;48.638;9.060;2023-02-15T16:50:05;0.70;;;0.70;;
10523;SDS011;5310;48.638;9.060;2023-02-15T16:52:31;0.80;;;0.80;;
10523;SDS011;5310;48.638;9.060;2023-02-15T16:55:02;0.80;;;0.80;;
10523;SDS011;5310;48.638;9.060;2023-02-15T16:57:38;0.77;;;0.77;;
10523;SDS011;5310;48.638;9.060;2023-02-15T17:00:08;0.80;;;0.80;;
10523;SDS011;5310;48.638;9.060;2023-02-15T17:02:55;0.80;;;0.80;;
10523;SDS011;5310;48.638;9.060;2023-02-15T17:05:59;0.70;;;0.70;;
10523;SDS011;5310;48.638;9.060;2023-02-15T17:08:18;0.70;;;0.70;;
10523;SDS011;5310;48.638;9.060;2023-02-15T17:11:15;0.90;;;0.90;;
10523;SDS011;5310;48.638;9.060;2023-02-15T17:16:27;0.90;;;0.90;;
10523;SDS011;5310;48.638;9.060;2023-02-15T17:18:56;0.80;;;0.80;;
10523;SDS011;5310;48.638;9.060;2023-02-15T17:21:25;0.90;;;0.90;;
10523;SDS011;5310;48.638;9.060;2023-02-15T17:23:56;0.90;;;0.90;;
10523;SDS011;5310;48.638;9.060;2023-02-15T17:26:29;0.80;;;0.80;;
10523;SDS011;5310;48.638;9.060;2023-02-15T17:29:11;0.90;;;0.90;;
10523;SDS011;5310;48.638;9.060;2023-02-15T17:32:16;0.97;;;0.97;;
10523;SDS011;5310;48.638;9.060;2023-02-15T17:34:45;1.00;;;1.00;;
10523;SDS011;5310;48.638;9.060;2023-02-15T17:37:24;0.90;;;0.90;;
10523;SDS011;5310;48.638;9.060;2023-02-15T17:42:52;1.00;;;1.00;;
10523;SDS011;5310;48.638;9.060;2023-02-15T17:45:22;0.93;;;0.93;;
10523;SDS011;5310;48.638;9.060;2023-02-15T17:47:51;0.90;;;0.90;;
10523;SDS011;5310;48.638;9.060;2023-02-15T17:50:20;1.00;;;1.00;;
10523;SDS011;5310;48.638;9.060;2023-02-15T17:52:48;1.00;;;1.00;;
10523;SDS011;5310;48.638;9.060;2023-02-15T17:55:14;1.00;;;1.00;;
10523;SDS011;5310;48.638;9.060;2023-02-15T17:57:59;1.00;;;1.00;;